Time;durP1;ratioP1;P1;durP2;ratioP2;P2;SDS_P1;SDS_P2;PMS_P1;PMS_P2;Temp;Humidity;BMP_temperature;BMP_pressure;BME280_temperature;BME280_humidity;BME280_pressure;Samples;Min_cycle;Max_cycle;Signal;HPM_P1;HPM_P2
2021/07/14 00:01:50;;;;;;;;;30.25;28.50;;;;;18.44;74.66;100963.72;5077466;28;45516;-70
2021/07/14 00:04:16;;;;;;;;;32.00;26.50;;;;;18.43;74.65;100966.47;5078098;27;45881;-70
2021/07/14 00:06:42;;;;;;;;;29.25;29.25;;;;;18.42;74.62;100965.59;5077843;27;47564;-70
2021/07/14 00:09:09;;;;;;;;;28.75;26.00;;;;;18.43;74.56;100969.13;5077259;28;46426;-70
2021/07/14 00:11:42;;;;;;;;;30.00;27.25;;;;;18.41;74.43;100963.03;5077530;27;45356;-70
2021/07/14 00:14:29;;;;;;;;;38.25;31.50;;;;;18.39;74.64;100967.53;5061505;28;45303;-69
2021/07/14 00:22:30;;;;;;;;;29.75;27.00;;;;;18.37;74.74;100959.66;5078148;28;45425;-71
2021/07/14 00:24:56;;;;;;;;;26.25;25.00;;;;;18.36;74.72;100959.75;5077229;27;45476;-70
2021/07/14 00:27:23;;;;;;;;;30.00;27.25;;;;;18.36;74.88;100965.03;5077365;28;45840;-69
2021/07/14 00:29:54;;;;;;;;;30.75;29.75;;;;;18.35;74.82;100960.66;5076858;27;46224;-70
2021/07/14 00:32:21;;;;;;;;;27.50;25.25;;;;;18.34;74.74;100965.13;5077276;28;45418;-70
2021/07/14 00:34:47;;;;;;;;;26.25;25.75;;;;;18.34;74.76;100966.91;5077415;28;45400;-70
2021/07/14 00:37:14;;;;;;;;;26.75;25.50;;;;;18.34;74.88;100970.41;5077623;27;45587;-69
2021/07/14 00:39:41;;;;;;;;;25.25;23.00;;;;;18.33;74.87;100970.47;5076846;28;45489;-70
2021/07/14 00:42:07;;;;;;;;;22.50;21.50;;;;;18.31;74.79;100972.38;5076618;27;45481;-70
2021/07/14 00:44:33;;;;;;;;;29.25;24.50;;;;;18.32;74.52;100968.78;5076648;27;47871;-70
2021/07/14 00:47:00;;;;;;;;;25.75;25.75;;;;;18.29;74.41;100961.84;5077078;28;45330;-70
2021/07/14 00:49:27;;;;;;;;;25.25;22.25;;;;;18.30;74.36;100960.03;5077356;27;45592;-70
2021/07/14 00:51:53;;;;;;;;;23.75;23.00;;;;;18.30;74.40;100967.97;5076719;27;45422;-70
2021/07/14 00:54:18;;;;;;;;;25.25;24.25;;;;;18.30;74.41;100967.97;5076819;27;45468;-70
2021/07/14 00:56:46;;;;;;;;;25.75;25.00;;;;;18.30;74.30;100970.63;5076899;27;45360;-69
2021/07/14 00:59:11;;;;;;;;;24.25;24.25;;;;;18.28;74.28;100973.34;5076092;27;45544;-69
2021/07/14 01:01:37;;;;;;;;;25.25;23.00;;;;;18.29;74.42;100980.38;5077019;28;45303;-70
2021/07/14 01:04:12;;;;;;;;;24.75;23.50;;;;;18.28;74.58;100976.00;5076996;27;45241;-70
2021/07/14 01:07:05;;;;;;;;;26.50;23.50;;;;;18.29;74.53;100974.22;5076862;27;45373;-71
2021/07/14 01:09:47;;;;;;;;;26.00;26.00;;;;;18.29;74.46;100985.69;5076611;28;45491;-71
2021/07/14 01:12:28;;;;;;;;;27.75;24.00;;;;;18.30;74.56;100986.53;5076210;28;45435;-70
2021/07/14 01:15:10;;;;;;;;;28.00;24.00;;;;;18.30;74.46;100991.84;5076642;28;45563;-71
2021/07/14 01:17:44;;;;;;;;;27.25;25.25;;;;;18.31;74.26;100988.28;5076732;27;45252;-71
2021/07/14 01:20:36;;;;;;;;;25.25;23.00;;;;;18.30;74.08;100983.88;5061357;28;45529;-71
2021/07/14 01:23:09;;;;;;;;;27.00;22.25;;;;;18.29;74.31;100974.22;5076239;28;45499;-71
2021/07/14 01:25:52;;;;;;;;;23.00;19.50;;;;;18.28;74.01;100977.78;5077199;27;45447;-71
2021/07/14 01:28:19;;;;;;;;;23.00;20.25;;;;;18.29;74.11;100982.19;5076794;28;45353;-70
2021/07/14 01:30:47;;;;;;;;;24.25;20.00;;;;;18.28;73.94;100976.00;5076234;28;46455;-70
2021/07/14 01:33:15;;;;;;;;;24.50;19.00;;;;;18.24;73.80;100977.94;5076404;27;45441;-71
2021/07/14 01:35:45;;;;;;;;;18.00;16.50;;;;;18.22;73.91;100982.47;5076491;27;45543;-70
2021/07/14 01:38:11;;;;;;;;;26.50;21.25;;;;;18.22;74.12;100982.47;5076615;28;45457;-71
2021/07/14 01:40:40;;;;;;;;;21.50;16.75;;;;;18.21;73.94;100986.06;5076909;28;45409;-70
2021/07/14 01:43:07;;;;;;;;;23.25;22.50;;;;;18.20;73.78;100989.63;5076191;27;45386;-70
2021/07/14 01:45:36;;;;;;;;;20.75;19.00;;;;;18.20;73.86;100983.47;5075187;28;45305;-71
2021/07/14 01:48:03;;;;;;;;;21.00;17.75;;;;;18.20;73.77;100986.13;5076278;28;45330;-70
2021/07/14 01:50:31;;;;;;;;;18.00;16.00;;;;;18.18;73.82;100975.59;5076089;27;45453;-71
2021/07/14 01:52:58;;;;;;;;;16.50;16.50;;;;;18.17;74.04;100967.72;5074839;28;45287;-71
2021/07/14 01:55:25;;;;;;;;;14.25;13.50;;;;;18.14;73.86;100971.38;5076947;27;45401;-70
2021/07/14 01:57:55;;;;;;;;;11.25;11.25;;;;;18.12;73.79;100967.94;5074803;28;45592;-70
2021/07/14 02:00:21;;;;;;;;;13.00;12.25;;;;;18.11;73.65;100966.22;5075988;28;46241;-70
2021/07/14 02:05:16;;;;;;;;;12.00;12.00;;;;;18.09;73.84;100956.63;5076094;27;45398;-70
2021/07/14 02:07:41;;;;;;;;;15.00;12.25;;;;;18.07;73.37;100963.78;5076439;28;45345;-72
2021/07/14 02:10:07;;;;;;;;;13.25;11.75;;;;;18.02;73.50;100956.94;5075710;27;45354;-71
2021/07/14 02:12:34;;;;;;;;;14.75;13.75;;;;;18.02;73.47;100951.63;5074920;28;45551;-72
2021/07/14 02:15:08;;;;;;;;;11.50;11.50;;;;;18.01;73.40;100959.66;5075685;28;45455;-71
2021/07/14 02:17:43;;;;;;;;;15.75;10.25;;;;;18.01;73.59;100959.66;5075532;27;45495;-72
2021/07/14 02:20:15;;;;;;;;;12.50;10.00;;;;;17.99;73.47;100956.22;5059271;28;46280;-71
2021/07/14 02:22:41;;;;;;;;;10.25;10.25;;;;;17.98;73.54;100954.50;5075598;28;45516;-72
2021/07/14 02:25:07;;;;;;;;;10.00;10.00;;;;;17.98;73.30;100963.31;5075379;27;45829;-71
2021/07/14 02:27:32;;;;;;;;;10.00;10.00;;;;;17.97;73.23;100952.78;5075497;27;45588;-71
2021/07/14 02:29:58;;;;;;;;;10.00;5.75;;;;;17.95;73.50;100963.47;5075182;28;45751;-70
2021/07/14 02:32:24;;;;;;;;;9.50;8.25;;;;;17.94;73.19;100961.72;5075331;28;45421;-71
2021/07/14 02:34:53;;;;;;;;;9.00;9.00;;;;;17.93;73.24;100960.03;5075528;28;45229;-70
2021/07/14 02:37:44;;;;;;;;;10.75;9.50;;;;;17.90;73.17;100957.53;5076168;27;45439;-70
2021/07/14 02:40:12;;;;;;;;;8.75;7.75;;;;;17.88;73.13;100958.53;5074515;28;45497;-70
2021/07/14 02:42:40;;;;;;;;;12.25;8.75;;;;;17.86;72.96;100957.75;5075059;28;45424;-69
2021/07/14 02:45:06;;;;;;;;;9.25;8.00;;;;;17.85;73.47;100962.16;5075047;27;45441;-69
2021/07/14 02:47:38;;;;;;;;;9.75;8.25;;;;;17.82;72.99;100965.81;5070964;28;45478;-69
2021/07/14 02:50:13;;;;;;;;;11.75;10.25;;;;;17.79;73.15;100965.94;5059075;28;45426;-70
2021/07/14 02:52:40;;;;;;;;;8.75;8.75;;;;;17.77;73.21;100962.50;5072050;28;45461;-70
2021/07/14 02:55:12;;;;;;;;;9.25;8.50;;;;;17.76;73.15;100962.59;5075064;27;45438;-70
2021/07/14 02:57:39;;;;;;;;;6.50;6.25;;;;;17.72;73.28;100966.28;5074844;27;45497;-71
2021/07/14 03:00:07;;;;;;;;;9.75;8.50;;;;;17.72;73.36;100966.28;5074464;27;46387;-70
2021/07/14 03:02:34;;;;;;;;;10.25;7.25;;;;;17.71;73.30;100970.72;5073756;28;45462;-70
2021/07/14 03:05:00;;;;;;;;;10.75;8.50;;;;;17.70;73.11;100969.00;5073461;27;45477;-70
2021/07/14 03:07:26;;;;;;;;;8.25;8.25;;;;;17.69;73.46;100969.94;5070305;28;45455;-70
2021/07/14 03:09:54;;;;;;;;;6.00;6.00;;;;;17.68;73.41;100965.56;5073398;28;45433;-70
2021/07/14 03:12:21;;;;;;;;;7.25;7.25;;;;;17.68;73.16;100970.00;5074290;27;45666;-70
2021/07/14 03:14:51;;;;;;;;;7.75;7.75;;;;;17.67;73.18;100970.94;5074722;27;45421;-70
2021/07/14 03:17:17;;;;;;;;;8.25;7.00;;;;;17.67;72.99;100969.16;5074525;27;45485;-69
2021/07/14 03:19:44;;;;;;;;;10.00;10.00;;;;;17.67;73.33;100974.44;5074477;28;45377;-70
2021/07/14 03:22:10;;;;;;;;;8.00;7.00;;;;;17.67;73.21;100968.28;5075248;27;45402;-69
2021/07/14 03:24:36;;;;;;;;;7.25;7.00;;;;;17.66;73.19;100974.50;5074167;27;45417;-70
2021/07/14 03:27:04;;;;;;;;;7.50;6.00;;;;;17.67;72.86;100973.59;5074800;27;45370;-70
2021/07/14 03:29:31;;;;;;;;;6.25;6.25;;;;;17.66;72.92;100980.66;5074707;27;47438;-70
2021/07/14 03:31:58;;;;;;;;;8.75;7.75;;;;;17.68;73.29;100984.09;5073513;28;45466;-70
2021/07/14 03:34:23;;;;;;;;;9.00;9.00;;;;;17.66;72.86;100982.44;5075540;27;45534;-70
2021/07/14 03:36:50;;;;;;;;;8.75;8.75;;;;;17.66;72.65;100985.09;5074707;27;45338;-70
2021/07/14 03:39:17;;;;;;;;;6.75;6.75;;;;;17.63;72.92;100991.38;5074086;27;46350;-70
2021/07/14 03:41:43;;;;;;;;;5.25;4.25;;;;;17.64;73.03;100998.41;5074761;27;45540;-70
2021/07/14 03:44:10;;;;;;;;;9.00;8.00;;;;;17.65;73.20;100992.19;5074979;27;45397;-70
2021/07/14 03:46:37;;;;;;;;;7.00;6.75;;;;;17.66;72.84;100996.53;5075445;27;45610;-70
2021/07/14 03:49:02;;;;;;;;;7.25;6.75;;;;;17.67;72.76;101000.06;5074507;28;46252;-71
2021/07/14 03:51:28;;;;;;;;;8.00;5.25;;;;;17.67;72.81;101000.91;5074276;28;45365;-70
2021/07/14 03:53:55;;;;;;;;;8.75;7.00;;;;;17.69;72.62;100998.22;5074691;27;45654;-71
2021/07/14 03:56:24;;;;;;;;;5.50;5.50;;;;;17.71;72.80;101004.28;5074779;28;45394;-70
2021/07/14 03:58:50;;;;;;;;;7.00;7.00;;;;;17.71;72.76;101004.28;5074583;28;45618;-71
2021/07/14 04:01:18;;;;;;;;;6.75;6.75;;;;;17.72;72.68;101001.56;5072786;28;45255;-70
2021/07/14 04:03:43;;;;;;;;;5.25;5.25;;;;;17.72;72.72;101006.84;5074246;27;45448;-70
2021/07/14 04:06:10;;;;;;;;;6.25;6.00;;;;;17.73;72.73;101013.88;5074075;27;45608;-68
2021/07/14 04:08:48;;;;;;;;;7.75;7.00;;;;;17.73;72.62;101010.34;5074449;27;45574;-70
2021/07/14 04:11:14;;;;;;;;;8.75;6.00;;;;;17.76;72.63;101010.25;5059653;28;45295;-71
2021/07/14 04:13:42;;;;;;;;;9.00;8.00;;;;;17.76;72.48;101010.25;5074650;28;45317;-71
2021/07/14 04:16:07;;;;;;;;;9.00;6.00;;;;;17.78;72.28;101005.72;5075009;27;45153;-71
2021/07/14 04:18:32;;;;;;;;;7.50;6.50;;;;;17.77;72.28;100996.06;5073931;27;45300;-72
2021/07/14 04:20:58;;;;;;;;;7.50;7.50;;;;;17.78;72.43;101003.06;5073893;27;45466;-71
2021/07/14 04:23:24;;;;;;;;;7.75;6.75;;;;;17.78;72.23;101005.72;5074330;27;45452;-71
2021/07/14 04:25:49;;;;;;;;;9.00;8.00;;;;;17.77;72.12;101002.22;5074834;28;45582;-72
2021/07/14 04:28:15;;;;;;;;;5.75;5.75;;;;;17.78;72.17;101006.59;5074712;27;45445;-72
2021/07/14 04:30:40;;;;;;;;;6.00;6.00;;;;;17.80;72.24;101012.72;5074072;27;45464;-71
2021/07/14 04:33:05;;;;;;;;;10.75;9.75;;;;;17.79;72.19;101008.28;5072776;28;47601;-72
2021/07/14 04:35:31;;;;;;;;;6.00;6.00;;;;;17.80;72.11;101006.50;5073939;27;45342;-72
2021/07/14 04:37:56;;;;;;;;;8.25;6.75;;;;;17.80;72.10;101006.50;5073731;28;45460;-72
2021/07/14 04:40:25;;;;;;;;;7.75;7.75;;;;;17.81;72.38;101014.41;5074595;27;45504;-71
2021/07/14 04:42:51;;;;;;;;;7.50;7.50;;;;;17.82;72.22;101012.63;5075018;27;45281;-72
2021/07/14 04:45:17;;;;;;;;;8.75;6.50;;;;;17.83;72.06;101019.66;5077549;27;45541;-72
2021/07/14 04:47:43;;;;;;;;;9.25;7.00;;;;;17.81;72.04;101019.72;5077247;27;46776;-71
2021/07/14 04:50:09;;;;;;;;;10.75;7.75;;;;;17.81;72.20;101017.06;5076982;27;45284;-72
2021/07/14 04:52:34;;;;;;;;;7.50;7.00;;;;;17.82;71.70;101018.78;5078476;28;45363;-72
2021/07/14 04:55:00;;;;;;;;;8.75;8.75;;;;;17.82;72.24;101018.78;5076629;27;45633;-72
2021/07/14 04:57:25;;;;;;;;;9.50;8.00;;;;;17.83;72.15;101025.81;5076716;27;45525;-72
2021/07/14 04:59:50;;;;;;;;;5.75;5.50;;;;;17.83;71.65;101030.25;5073716;28;45632;-73
2021/07/14 05:02:16;;;;;;;;;8.75;8.75;;;;;17.83;71.95;101025.81;5077287;28;45513;-72
2021/07/14 05:04:41;;;;;;;;;6.75;6.75;;;;;17.85;72.02;101038.09;5056322;28;45481;-73
2021/07/14 05:07:07;;;;;;;;;9.50;9.25;;;;;17.86;72.51;101037.19;5077108;27;46050;-72
2021/07/14 05:09:32;;;;;;;;;10.50;7.25;;;;;17.89;72.13;101034.38;5076907;27;45324;-73
2021/07/14 05:11:57;;;;;;;;;13.00;11.75;;;;;17.91;72.27;101043.13;5076931;27;45558;-74
2021/07/14 05:14:23;;;;;;;;;14.25;10.75;;;;;17.92;71.85;101036.88;5076866;27;45458;-74
2021/07/14 05:16:48;;;;;;;;;9.75;9.25;;;;;17.93;72.09;101035.97;5076948;28;45454;-74
2021/07/14 05:19:14;;;;;;;;;10.25;8.50;;;;;17.94;71.98;101032.38;5076803;27;45302;-74
2021/07/14 05:21:41;;;;;;;;;8.00;8.00;;;;;17.95;72.03;101036.78;5076658;27;45367;-74
2021/07/14 05:24:07;;;;;;;;;12.75;11.00;;;;;17.96;72.08;101041.97;5076880;27;45327;-73
2021/07/14 05:26:33;;;;;;;;;11.50;10.00;;;;;17.97;72.36;101049.00;5076612;27;45308;-75
2021/07/14 05:28:58;;;;;;;;;10.75;10.75;;;;;17.99;72.29;101048.91;5076646;28;45314;-75
2021/07/14 05:31:23;;;;;;;;;9.50;9.00;;;;;18.01;72.49;101047.06;5077140;27;45429;-74
2021/07/14 05:33:49;;;;;;;;;9.75;9.75;;;;;18.03;72.42;101046.06;5075869;27;45471;-74
2021/07/14 05:36:14;;;;;;;;;14.25;11.50;;;;;18.07;72.43;101043.25;5075817;27;46302;-74
2021/07/14 05:38:41;;;;;;;;;10.25;10.25;;;;;18.08;72.28;101048.50;5071193;28;45519;-72
2021/07/14 05:41:07;;;;;;;;;13.25;11.25;;;;;18.10;72.39;101053.75;5076174;28;45615;-72
2021/07/14 05:43:33;;;;;;;;;15.75;15.50;;;;;18.11;72.42;101052.78;5072305;28;45472;-73
2021/07/14 05:45:58;;;;;;;;;16.75;16.00;;;;;18.12;72.23;101049.22;5075716;27;46428;-73
2021/07/14 05:48:24;;;;;;;;;14.25;12.50;;;;;18.13;72.52;101053.59;5074894;27;45479;-73
2021/07/14 05:50:50;;;;;;;;;12.00;11.25;;;;;18.13;72.29;101046.50;5075970;27;45407;-73
2021/07/14 05:53:15;;;;;;;;;14.50;14.50;;;;;18.15;72.54;101049.06;5075838;27;45534;-73
2021/07/14 05:55:40;;;;;;;;;9.75;9.75;;;;;18.15;72.13;101049.06;5075097;28;46412;-73
2021/07/14 05:58:07;;;;;;;;;9.50;8.50;;;;;18.12;71.50;101054.53;5076480;27;45421;-74
2021/07/14 06:00:33;;;;;;;;;11.25;10.75;;;;;18.12;71.42;101052.72;5075904;27;45440;-73
2021/07/14 06:02:58;;;;;;;;;10.75;8.75;;;;;18.11;71.38;101056.28;5075519;27;45409;-73
2021/07/14 06:05:24;;;;;;;;;8.75;7.75;;;;;18.10;71.32;101057.25;5075994;27;47200;-73
2021/07/14 06:07:49;;;;;;;;;8.00;7.00;;;;;18.10;71.26;101062.53;5075921;28;45388;-73
2021/07/14 06:10:15;;;;;;;;;8.25;8.25;;;;;18.11;71.05;101063.38;5076368;27;45352;-74
2021/07/14 06:12:40;;;;;;;;;13.00;10.50;;;;;18.13;70.94;101064.19;5075668;27;45547;-74
2021/07/14 06:15:06;;;;;;;;;10.50;9.75;;;;;18.13;70.73;101056.22;5075456;27;45334;-74
2021/07/14 06:17:32;;;;;;;;;8.00;6.75;;;;;18.14;70.92;101061.47;5075311;27;45377;-74
2021/07/14 06:19:57;;;;;;;;;11.50;9.25;;;;;18.15;70.92;101065.81;5075678;28;45576;-74
2021/07/14 06:22:23;;;;;;;;;11.00;10.00;;;;;18.15;70.75;101063.19;5076262;27;45477;-74
2021/07/14 06:24:48;;;;;;;;;7.50;7.50;;;;;18.14;70.60;101066.78;5074765;28;45700;-74
2021/07/14 06:27:13;;;;;;;;;6.25;6.00;;;;;18.16;70.62;101061.38;5074844;27;45466;-73
2021/07/14 06:29:39;;;;;;;;;10.25;8.25;;;;;18.18;70.80;101073.63;5075599;27;45421;-73
2021/07/14 06:32:05;;;;;;;;;12.00;10.00;;;;;18.18;70.73;101065.69;5058748;28;45621;-73
2021/07/14 06:34:30;;;;;;;;;8.25;8.25;;;;;18.21;70.43;101072.63;5075992;27;45337;-74
2021/07/14 06:36:56;;;;;;;;;9.25;9.25;;;;;18.24;70.75;101078.66;5074992;27;45420;-74
2021/07/14 06:39:22;;;;;;;;;7.00;7.00;;;;;18.28;70.42;101074.06;5074878;27;45318;-74
2021/07/14 06:41:47;;;;;;;;;14.75;12.75;;;;;18.32;70.43;101077.44;5075527;28;45533;-75
2021/07/14 06:44:13;;;;;;;;;12.75;12.25;;;;;18.35;70.22;101083.47;5075448;28;45339;-73
2021/07/14 06:46:38;;;;;;;;;10.00;10.00;;;;;18.40;69.84;101085.88;5075660;28;45427;-72
2021/07/14 06:49:03;;;;;;;;;10.25;8.00;;;;;18.47;69.75;101084.63;5075619;28;45591;-73
2021/07/14 06:51:29;;;;;;;;;10.00;9.00;;;;;18.54;69.55;101085.22;5075330;28;45558;-72
2021/07/14 06:53:54;;;;;;;;;6.00;5.75;;;;;18.64;69.40;101079.41;5074314;28;46797;-72
2021/07/14 06:56:20;;;;;;;;;7.50;7.50;;;;;18.83;69.43;101078.53;5074924;27;45401;-72
2021/07/14 06:58:45;;;;;;;;;13.50;11.75;;;;;19.03;68.91;101077.56;5075544;27;45420;-72
2021/07/14 07:01:12;;;;;;;;;15.75;12.50;;;;;19.18;68.71;101074.09;5075291;28;45377;-73
2021/07/14 07:03:37;;;;;;;;;10.50;7.00;;;;;19.26;68.29;101073.75;5074413;27;45465;-73
2021/07/14 07:06:06;;;;;;;;;7.00;7.00;;;;;19.31;67.88;101072.56;5074374;27;45452;-72
2021/07/14 07:08:32;;;;;;;;;4.25;4.25;;;;;19.36;67.49;101067.00;5074974;28;45536;-72
2021/07/14 07:10:58;;;;;;;;;6.50;5.50;;;;;19.42;67.47;101077.28;5074650;28;45590;-72
2021/07/14 07:13:24;;;;;;;;;8.00;8.00;;;;;19.49;67.39;101078.69;5074777;27;46198;-73
2021/07/14 07:15:49;;;;;;;;;8.00;7.50;;;;;19.55;67.08;101085.50;5074015;27;45702;-73
2021/07/14 07:18:15;;;;;;;;;7.75;7.75;;;;;19.62;66.92;101094.00;5074359;27;45906;-75
2021/07/14 07:20:41;;;;;;;;;10.50;9.50;;;;;19.66;66.78;101091.13;5074505;27;45430;-73
2021/07/14 07:23:08;;;;;;;;;8.25;6.50;;;;;19.67;66.65;101087.50;5074299;27;46460;-73
2021/07/14 07:25:34;;;;;;;;;8.50;8.50;;;;;19.72;66.19;101088.16;5075246;27;45488;-72
2021/07/14 07:28:02;;;;;;;;;9.00;8.00;;;;;19.76;66.17;101086.22;5074498;28;45329;-73
2021/07/14 07:30:27;;;;;;;;;10.75;10.00;;;;;19.80;65.97;101084.22;5073450;27;46875;-74
2021/07/14 07:32:53;;;;;;;;;11.50;8.75;;;;;19.88;66.08;101090.88;5069144;28;46200;-73
2021/07/14 07:35:19;;;;;;;;;8.00;8.00;;;;;20.00;65.98;101092.00;5074559;27;45614;-73
2021/07/14 07:37:44;;;;;;;;;7.50;6.25;;;;;20.15;65.30;101085.84;5074027;28;45457;-73
2021/07/14 07:40:11;;;;;;;;;9.50;7.75;;;;;20.28;65.55;101096.66;5074249;28;45516;-72
2021/07/14 07:42:36;;;;;;;;;10.00;7.75;;;;;20.46;64.65;101086.81;5073805;28;46866;-71
2021/07/14 07:45:04;;;;;;;;;8.00;8.00;;;;;20.65;64.12;101093.78;5072766;27;45448;-72
2021/07/14 07:47:29;;;;;;;;;8.00;6.67;;;;;20.82;64.18;101083.03;5074264;27;45452;-70
2021/07/14 07:49:54;;;;;;;;;8.00;7.00;;;;;20.98;63.08;101083.00;5074234;28;46039;-70
2021/07/14 07:52:21;;;;;;;;;6.67;6.67;;;;;21.07;63.44;101078.94;5074909;27;45625;-70
2021/07/14 07:54:48;;;;;;;;;6.00;6.00;;;;;21.25;62.99;101082.31;5073883;27;45518;-71
2021/07/14 07:57:14;;;;;;;;;8.67;7.33;;;;;21.37;61.98;101081.59;5073409;27;45547;-71
2021/07/14 07:59:39;;;;;;;;;7.00;6.00;;;;;21.48;61.86;101088.97;5073426;27;45489;-71
2021/07/14 08:02:05;;;;;;;;;9.33;8.33;;;;;21.45;61.16;101099.78;5073736;28;46496;-70
2021/07/14 08:04:31;;;;;;;;;9.25;6.75;;;;;21.39;61.67;101093.88;5074137;27;45338;-72
2021/07/14 08:06:57;;;;;;;;;6.75;6.75;;;;;21.34;60.57;101101.28;5073882;27;45365;-74
2021/07/14 08:09:22;;;;;;;;;8.00;5.33;;;;;21.20;61.01;101106.56;5073786;28;45471;-73
2021/07/14 08:11:48;;;;;;;;;8.67;4.33;;;;;21.13;61.05;101094.56;5073171;27;45480;-63
2021/07/14 08:14:14;;;;;;;;;6.33;4.67;;;;;21.14;60.85;101098.91;5072771;27;47313;-63
2021/07/14 08:16:39;;;;;;;;;6.00;5.00;;;;;21.08;60.73;101105.47;5073612;28;45355;-63
2021/07/14 08:19:05;;;;;;;;;7.00;7.00;;;;;20.96;60.83;101104.38;5076266;27;45372;-63
2021/07/14 08:21:30;;;;;;;;;6.33;5.00;;;;;20.84;61.18;101105.09;5076809;27;45733;-63
2021/07/14 08:23:55;;;;;;;;;5.00;5.00;;;;;20.79;61.24;101112.47;5077113;28;45461;-63
2021/07/14 08:26:21;;;;;;;;;6.00;5.00;;;;;20.74;61.16;101119.88;5076990;28;45253;-63
2021/07/14 08:28:46;;;;;;;;;10.67;9.33;;;;;20.71;61.26;101122.69;5076639;28;45571;-63
2021/07/14 08:31:12;;;;;;;;;8.67;6.67;;;;;20.70;61.67;101119.16;5077018;27;45340;-62
2021/07/14 08:33:37;;;;;;;;;5.67;5.67;;;;;20.66;61.55;101127.41;5076623;27;45353;-62
2021/07/14 08:36:03;;;;;;;;;8.00;6.00;;;;;20.64;61.63;101123.97;5076653;27;45536;-64
2021/07/14 08:38:29;;;;;;;;;5.33;5.33;;;;;20.68;61.64;101128.19;5076801;27;45467;-64
2021/07/14 08:40:58;;;;;;;;;6.33;6.00;;;;;20.74;61.74;101126.03;5077214;28;46297;-64
2021/07/14 08:43:27;;;;;;;;;8.50;7.50;;;;;20.78;61.59;101132.03;5077347;27;45481;-63
2021/07/14 08:45:53;;;;;;;;;4.33;4.33;;;;;20.74;61.62;101135.84;5077086;28;45350;-63
2021/07/14 08:48:18;;;;;;;;;7.67;6.67;;;;;20.67;61.92;101131.81;5076600;27;45273;-64
2021/07/14 08:50:45;;;;;;;;;9.67;8.00;;;;;20.64;62.17;101129.28;5076668;27;46562;-64
2021/07/14 08:53:16;;;;;;;;;9.67;9.00;;;;;20.58;62.41;101135.81;5076691;27;45408;-64
2021/07/14 08:55:43;;;;;;;;;7.25;6.00;;;;;20.54;62.04;101142.22;5076638;28;45318;-63
2021/07/14 08:58:13;;;;;;;;;5.00;5.00;;;;;20.49;62.15;101133.66;5075303;28;45461;-64
2021/07/14 09:00:38;;;;;;;;;10.00;8.50;;;;;20.43;62.14;101134.00;5075611;27;45540;-63
2021/07/14 09:03:04;;;;;;;;;7.00;7.00;;;;;20.37;62.12;101143.16;5075253;27;45418;-65
2021/07/14 09:05:30;;;;;;;;;5.33;5.33;;;;;20.34;62.24;101138.88;5076307;27;45453;-64
2021/07/14 09:07:55;;;;;;;;;6.00;6.00;;;;;20.31;61.86;101147.00;5069473;28;45416;-63
2021/07/14 09:10:20;;;;;;;;;5.25;5.00;;;;;20.27;61.73;101140.13;5076369;27;46149;-65
2021/07/14 09:12:46;;;;;;;;;6.00;6.00;;;;;20.25;62.09;101144.69;5075563;28;45481;-65
2021/07/14 09:15:19;;;;;;;;;6.00;5.00;;;;;20.25;62.07;101143.81;5071599;27;45762;-66
2021/07/14 09:17:47;;;;;;;;;5.33;5.33;;;;;20.24;62.14;101144.78;5076020;28;45376;-65
2021/07/14 09:20:14;;;;;;;;;5.00;4.00;;;;;20.23;61.59;101141.25;5075162;28;46350;-65
2021/07/14 09:22:40;;;;;;;;;4.33;4.33;;;;;20.21;61.89;101142.25;5075699;27;45523;-65
2021/07/14 09:25:10;;;;;;;;;7.00;5.33;;;;;20.19;61.79;101145.03;5074235;28;45382;-64
2021/07/14 09:27:36;;;;;;;;;8.00;7.25;;;;;20.23;61.54;101132.41;5075444;28;45404;-65
2021/07/14 09:30:16;;;;;;;;;8.75;7.75;;;;;20.34;61.66;101132.69;5075495;27;45533;-66
2021/07/14 09:32:50;;;;;;;;;7.00;7.00;;;;;20.59;61.07;101129.56;5075577;27;45540;-65
2021/07/14 09:35:27;;;;;;;;;6.00;5.67;;;;;20.83;60.53;101127.31;5076389;27;45379;-64
2021/07/14 09:37:54;;;;;;;;;6.00;4.67;;;;;21.04;59.97;101138.53;5075897;27;45400;-65
2021/07/14 09:40:20;;;;;;;;;7.00;7.00;;;;;21.18;59.49;101137.72;5075815;27;45421;-65
2021/07/14 09:42:55;;;;;;;;;5.00;3.33;;;;;21.28;59.21;101140.72;5075465;27;45967;-65
2021/07/14 09:45:37;;;;;;;;;4.67;4.00;;;;;21.33;59.08;101135.97;5075630;27;45437;-65
2021/07/14 09:48:05;;;;;;;;;5.67;4.00;;;;;21.33;58.59;101143.97;5075185;28;45489;-65
2021/07/14 09:50:39;;;;;;;;;6.75;4.75;;;;;21.33;58.55;101146.63;5086749;27;47660;-66
2021/07/14 09:53:07;;;;;;;;;5.33;5.33;;;;;21.32;58.79;101148.44;5075561;28;45528;-64
2021/07/14 09:55:33;;;;;;;;;9.33;7.33;;;;;21.32;58.83;101148.44;5075774;27;45405;-64
2021/07/14 09:58:14;;;;;;;;;4.00;4.00;;;;;21.31;58.62;101154.72;5075152;27;45294;-65
2021/07/14 10:00:44;;;;;;;;;7.33;7.33;;;;;21.32;58.63;101147.59;5075210;27;46000;-64
2021/07/14 10:03:17;;;;;;;;;10.67;7.33;;;;;21.32;58.01;101148.44;5074683;27;45500;-64
2021/07/14 10:05:42;;;;;;;;;5.33;3.00;;;;;21.26;58.44;101150.59;5074905;27;45311;-64
2021/07/14 10:08:17;;;;;;;;;7.00;6.33;;;;;21.26;58.52;101145.25;5075007;28;45411;-66
2021/07/14 10:10:43;;;;;;;;;5.00;5.00;;;;;21.24;58.10;101147.16;5071926;28;47919;-65
2021/07/14 10:13:10;;;;;;;;;8.00;7.33;;;;;21.25;58.28;101154.22;5075337;27;45380;-66
2021/07/14 10:15:36;;;;;;;;;5.00;5.00;;;;;21.26;58.46;101154.13;5075034;27;45492;-65
2021/07/14 10:18:01;;;;;;;;;8.67;8.67;;;;;21.33;58.33;101149.28;5074865;28;45326;-66
2021/07/14 10:20:33;;;;;;;;;8.33;8.00;;;;;21.38;58.08;101152.53;5074407;27;46355;-63
2021/07/14 10:23:11;;;;;;;;;6.67;6.00;;;;;21.42;58.14;101162.94;5074233;28;45550;-64
2021/07/14 10:25:38;;;;;;;;;8.75;8.75;;;;;21.42;58.15;101159.44;5075382;28;45501;-64
2021/07/14 10:28:07;;;;;;;;;8.50;8.50;;;;;21.38;58.07;101156.06;5074820;28;45519;-65
2021/07/14 10:30:33;;;;;;;;;15.75;11.75;;;;;21.41;57.91;101155.91;5069812;28;47331;-64
2021/07/14 10:32:59;;;;;;;;;8.33;8.33;;;;;21.46;57.71;101158.31;5065737;28;46726;-65
2021/07/14 10:35:28;;;;;;;;;6.00;6.00;;;;;21.47;57.69;101159.16;5075373;27;45548;-64
2021/07/14 10:37:57;;;;;;;;;7.00;7.00;;;;;21.51;58.15;101153.56;5073976;28;45401;-64
2021/07/14 10:40:24;;;;;;;;;10.25;9.50;;;;;21.68;57.77;101165.88;5074241;28;45346;-65
2021/07/14 10:42:50;;;;;;;;;9.00;9.00;;;;;21.83;57.88;101167.63;5074389;28;45596;-66
2021/07/14 10:45:17;;;;;;;;;7.75;7.00;;;;;21.94;56.94;101168.78;5074616;27;45472;-65
2021/07/14 10:47:45;;;;;;;;;5.33;5.33;;;;;22.08;57.12;101170.59;5074533;27;45571;-64
2021/07/14 10:50:11;;;;;;;;;7.00;6.33;;;;;22.35;56.92;101170.72;5074515;27;45612;-66
2021/07/14 10:52:38;;;;;;;;;7.00;5.67;;;;;22.71;56.48;101174.66;5075477;28;45279;-65
2021/07/14 10:55:04;;;;;;;;;7.00;7.00;;;;;23.02;56.31;101171.75;5074737;28;45410;-66
2021/07/14 10:57:35;;;;;;;;;9.33;8.33;;;;;23.31;55.87;101161.81;5074464;28;45477;-66
2021/07/14 11:00:06;;;;;;;;;6.33;6.33;;;;;23.59;54.79;101170.63;5074342;27;47145;-69
2021/07/14 11:02:44;;;;;;;;;9.67;9.33;;;;;23.86;54.01;101172.38;5074352;27;45477;-68
2021/07/14 11:05:12;;;;;;;;;6.67;6.67;;;;;24.12;53.67;101171.44;5058385;28;45483;-67
2021/07/14 11:07:45;;;;;;;;;7.67;6.67;;;;;24.38;53.56;101174.97;5074527;28;45291;-66
2021/07/14 11:10:24;;;;;;;;;9.33;8.00;;;;;24.77;51.59;101173.06;5074352;28;46006;-67
2021/07/14 11:12:50;;;;;;;;;7.33;5.67;;;;;25.00;51.78;101166.03;5083903;22;45665;-67
2021/07/14 11:15:33;;;;;;;;;9.67;8.33;;;;;25.46;50.92;101171.56;5065567;27;45500;-67
2021/07/14 11:17:59;;;;;;;;;23.75;22.75;;;;;25.97;50.00;101163.19;5065758;28;45765;-67
2021/07/14 11:20:39;;;;;;;;;11.00;10.00;;;;;26.45;49.10;101176.38;5064268;27;46356;-67
2021/07/14 11:23:25;;;;;;;;;9.00;7.67;;;;;26.45;48.29;101169.16;5067286;28;45528;-67
2021/07/14 11:25:52;;;;;;;;;9.00;9.00;;;;;26.19;48.21;101173.94;5061132;28;45523;-67
2021/07/14 11:28:18;;;;;;;;;7.00;7.00;;;;;25.91;47.70;101174.41;5066370;27;45569;-67
2021/07/14 11:30:49;;;;;;;;;5.00;4.00;;;;;25.52;48.18;101165.75;5066321;27;46976;-70